Time;durP1;ratioP1;P1;durP2;ratioP2;P2;SDS_P1;SDS_P2;PMS_P1;PMS_P2;Temp;Humidity;BMP_temperature;BMP_pressure;BME280_temperature;BME280_humidity;BME280_pressure;Samples;Min_cycle;Max_cycle;Signal;HPM_P1;HPM_P2
2022/09/10 00:00:23;;;;;;;;;;;;;;;18.09;62.52;100964.66;4959284;28;20013;-56
2022/09/10 00:02:48;;;;;;;;;;;;;;;18.03;62.57;100966.03;4960123;28;19926;-60
2022/09/10 00:05:14;;;;;;;;;;;;;;;18.00;62.31;100965.47;4964085;28;20354;-56
2022/09/10 00:07:39;;;;;;;;;;;;;;;17.97;62.42;100962.09;4963756;28;20434;-56
2022/09/10 00:10:05;;;;;;;;;;;;;;;17.96;62.77;100965.69;4963001;28;19929;-59
2022/09/10 00:12:30;;;;;;;;;;;;;;;17.95;62.51;100964.00;4963909;28;19918;-58
2022/09/10 00:14:55;;;;;;;;;;;;;;;17.93;62.66;100957.97;4963402;28;19997;-60
2022/09/10 00:17:22;;;;;;;;;;;;;;;17.92;62.31;100963.44;4963750;28;19922;-60
2022/09/10 00:19:47;;;;;;;;;;;;;;;17.89;62.39;100963.69;4962193;28;20411;-59
2022/09/10 00:22:12;;;;;;;;;;;;;;;17.86;62.66;100959.47;4965691;28;20445;-57
2022/09/10 00:24:38;;;;;;;;;;;;;;;17.86;62.54;100954.16;4962406;28;19936;-57
2022/09/10 00:27:03;;;;;;;;;;;;;;;17.84;62.60;100956.09;4962085;28;21278;-56
2022/09/10 00:29:29;;;;;;;;;;;;;;;17.83;62.76;100954.41;4960102;28;19926;-56
2022/09/10 00:31:55;;;;;;;;;;;;;;;17.84;62.57;100958.75;4961878;28;20406;-56
2022/09/10 00:34:20;;;;;;;;;;;;;;;17.83;62.36;100955.28;4965596;28;19965;-58
2022/09/10 00:36:45;;;;;;;;;;;;;;;17.82;62.30;100952.72;4961712;28;20028;-57
2022/09/10 00:39:15;;;;;;;;;;;;;;;17.81;62.31;100956.34;4964814;28;20433;-60
2022/09/10 00:41:41;;;;;;;;;;;;;;;17.78;62.26;100964.59;4963958;28;20092;-60
2022/09/10 00:44:25;;;;;;;;;;;;;;;17.77;62.35;100968.25;4963822;28;19933;-61
2022/09/10 00:46:52;;;;;;;;;;;;;;;17.74;62.32;100964.03;4962700;28;20025;-57
2022/09/10 00:49:27;;;;;;;;;;;;;;;17.72;62.48;100968.63;4963915;28;19929;-60
2022/09/10 00:51:53;;;;;;;;;;;;;;;17.70;62.48;100956.44;4963048;28;19998;-58
2022/09/10 00:54:20;;;;;;;;;;;;;;;17.67;62.72;100955.72;4965486;28;19937;-59
2022/09/10 00:56:46;;;;;;;;;;;;;;;17.65;62.79;100952.34;4965760;28;19925;-60
2022/09/10 00:59:13;;;;;;;;;;;;;;;17.63;62.48;100959.59;4963689;28;19926;-56
2022/09/10 01:01:41;;;;;;;;;;;;;;;17.59;62.63;100963.50;4961943;28;20405;-58
2022/09/10 01:04:07;;;;;;;;;;;;;;;17.55;62.66;100958.56;4963837;28;20389;-56
2022/09/10 01:06:32;;;;;;;;;;;;;;;17.56;62.51;100961.09;4964350;28;20393;-57
2022/09/10 01:08:58;;;;;;;;;;;;;;;17.56;62.77;100963.75;4962526;28;19929;-56
2022/09/10 01:11:33;;;;;;;;;;;;;;;17.50;62.62;100956.28;4960646;28;20367;-56
2022/09/10 01:14:14;;;;;;;;;;;;;;;17.54;62.79;100959.56;4968089;28;20021;-57
2022/09/10 01:16:51;;;;;;;;;;;;;;;17.52;62.58;100957.00;4968517;28;19933;-57
2022/09/10 01:19:17;;;;;;;;;;;;;;;17.50;62.62;100956.28;4967818;28;20305;-56
2022/09/10 01:22:06;;;;;;;;;;;;;;;17.49;62.92;100957.25;4968688;28;20374;-57
2022/09/10 01:24:38;;;;;;;;;;;;;;;17.47;62.70;100960.06;4959677;28;19949;-57
2022/09/10 01:27:25;;;;;;;;;;;;;;;17.46;62.82;100962.84;4966441;28;19996;-57
2022/09/10 01:30:00;;;;;;;;;;;;;;;17.45;62.87;100963.84;4966577;28;20021;-56
2022/09/10 01:32:43;;;;;;;;;;;;;;;17.43;62.83;100963.94;4966295;28;20353;-59
2022/09/10 01:35:27;;;;;;;;;;;;;;;17.44;63.00;100954.16;4967389;28;21251;-57
2022/09/10 01:37:54;;;;;;;;;;;;;;;17.43;62.96;100958.63;4966188;28;20421;-57
2022/09/10 01:40:28;;;;;;;;;;;;;;;17.43;62.88;100955.13;4956983;28;19922;-57
2022/09/10 01:42:59;;;;;;;;;;;;;;;17.41;62.89;100954.41;4965175;28;19965;-57
2022/09/10 01:45:24;;;;;;;;;;;;;;;17.38;62.87;100955.53;4964607;28;19922;-56
2022/09/10 01:47:59;;;;;;;;;;;;;;;17.36;62.95;100947.66;4962750;28;19926;-56
2022/09/10 01:50:42;;;;;;;;;;;;;;;17.34;62.81;100954.91;4965333;28;19918;-57
2022/09/10 01:53:15;;;;;;;;;;;;;;;17.30;63.02;100956.16;4962377;28;19926;-57
2022/09/10 01:55:53;;;;;;;;;;;;;;;17.25;62.92;100949.50;4965292;28;20056;-57
2022/09/10 01:58:32;;;;;;;;;;;;;;;17.21;63.04;100943.59;4964186;28;20325;-57
2022/09/10 02:01:00;;;;;;;;;;;;;;;17.20;63.22;100941.91;4964404;28;20169;-57
2022/09/10 02:03:27;;;;;;;;;;;;;;;17.17;63.04;100943.03;4965408;28;19969;-56
2022/09/10 02:05:53;;;;;;;;;;;;;;;17.17;63.23;100943.03;4965225;28;19922;-57
2022/09/10 02:08:22;;;;;;;;;;;;;;;17.17;63.04;100948.34;4965140;28;19933;-57
2022/09/10 02:10:53;;;;;;;;;;;;;;;17.17;62.99;100947.47;4964269;28;19925;-57
2022/09/10 02:13:19;;;;;;;;;;;;;;;17.16;63.00;100951.13;4964653;28;19944;-57
2022/09/10 02:15:45;;;;;;;;;;;;;;;17.13;63.16;100946.91;4964583;28;20811;-58
2022/09/10 02:18:10;;;;;;;;;;;;;;;17.11;63.12;100948.84;4964335;28;19930;-59
2022/09/10 02:20:36;;;;;;;;;;;;;;;17.09;63.05;100950.81;4964479;28;20466;-56
2022/09/10 02:23:02;;;;;;;;;;;;;;;17.06;62.99;100951.88;4964217;28;19985;-58
2022/09/10 02:25:32;;;;;;;;;;;;;;;17.06;63.15;100948.38;4963042;28;19933;-57
2022/09/10 02:27:58;;;;;;;;;;;;;;;17.05;63.01;100944.88;4965071;28;19918;-56
2022/09/10 02:30:23;;;;;;;;;;;;;;;17.03;63.01;100944.16;4966369;28;19922;-58
2022/09/10 02:32:49;;;;;;;;;;;;;;;17.01;62.98;100948.78;4966663;28;19941;-57
2022/09/10 02:35:14;;;;;;;;;;;;;;;17.00;63.01;100949.75;4965653;28;20378;-57
2022/09/10 02:37:40;;;;;;;;;;;;;;;16.97;62.94;100949.97;4965470;28;19972;-58
2022/09/10 02:40:05;;;;;;;;;;;;;;;16.96;62.93;100950.94;4965743;28;20761;-56
2022/09/10 02:42:31;;;;;;;;;;;;;;;16.90;63.03;100943.44;4965394;28;20386;-60
2022/09/10 02:44:56;;;;;;;;;;;;;;;16.90;63.00;100946.94;4966294;28;19994;-58
2022/09/10 02:47:21;;;;;;;;;;;;;;;16.87;63.10;100946.34;4964215;28;19930;-61
2022/09/10 02:49:47;;;;;;;;;;;;;;;16.88;63.19;100948.03;4967246;28;19926;-61
2022/09/10 02:52:12;;;;;;;;;;;;;;;16.87;62.97;100947.19;4965648;28;20018;-59
2022/09/10 02:54:39;;;;;;;;;;;;;;;16.86;63.09;100944.69;4967518;28;19926;-56
2022/09/10 02:57:04;;;;;;;;;;;;;;;16.84;63.01;100941.28;4968010;28;19926;-57
2022/09/10 02:59:31;;;;;;;;;;;;;;;16.82;63.20;100943.22;4965732;28;19969;-56
2022/09/10 03:01:56;;;;;;;;;;;;;;;16.81;63.13;100941.53;4964221;28;19981;-56
2022/09/10 03:04:22;;;;;;;;;;;;;;;16.81;63.16;100942.38;4966636;28;20033;-58
2022/09/10 03:06:48;;;;;;;;;;;;;;;16.81;63.20;100946.84;4966741;28;19930;-56
2022/09/10 03:09:13;;;;;;;;;;;;;;;16.79;63.15;100944.28;4964955;28;19926;-56
2022/09/10 03:11:39;;;;;;;;;;;;;;;16.77;63.07;100948.91;4963592;28;19926;-59
2022/09/10 03:14:05;;;;;;;;;;;;;;;16.76;63.05;100955.19;4963604;28;19926;-59
2022/09/10 03:16:31;;;;;;;;;;;;;;;16.74;63.14;100950.00;4961290;28;19930;-57
2022/09/10 03:18:56;;;;;;;;;;;;;;;16.73;62.92;100953.63;4961822;28;20648;-56
2022/09/10 03:21:23;;;;;;;;;;;;;;;16.72;63.01;100951.94;4965346;28;20401;-57
2022/09/10 03:23:50;;;;;;;;;;;;;;;16.68;63.13;100955.81;4965417;28;19958;-60
2022/09/10 03:26:16;;;;;;;;;;;;;;;16.64;63.16;100957.03;4964393;28;19960;-57
2022/09/10 03:28:42;;;;;;;;;;;;;;;16.60;63.17;100961.75;4963383;28;20700;-56
2022/09/10 03:31:08;;;;;;;;;;;;;;;16.58;63.30;100962.81;4958406;28;20021;-57
2022/09/10 03:33:33;;;;;;;;;;;;;;;16.57;63.38;100961.97;4964680;28;19996;-56
2022/09/10 03:35:59;;;;;;;;;;;;;;;16.55;63.18;100960.44;4964180;28;19933;-56
2022/09/10 03:38:26;;;;;;;;;;;;;;;16.53;63.20;100957.03;4963238;28;20353;-57
2022/09/10 03:40:52;;;;;;;;;;;;;;;16.52;63.16;100956.19;4963847;28;19965;-56
2022/09/10 03:43:18;;;;;;;;;;;;;;;16.51;63.22;100961.63;4958764;28;20050;-60
2022/09/10 03:45:44;;;;;;;;;;;;;;;16.51;63.13;100958.97;4960469;28;20234;-56
2022/09/10 03:48:09;;;;;;;;;;;;;;;16.49;63.17;100955.59;4960344;28;20376;-59
2022/09/10 03:50:35;;;;;;;;;;;;;;;16.46;63.13;100959.34;4961253;28;19926;-57
2022/09/10 03:53:02;;;;;;;;;;;;;;;16.44;63.30;100954.13;4963667;28;19930;-60
2022/09/10 03:55:28;;;;;;;;;;;;;;;16.42;63.31;100955.22;4962365;28;20420;-57
2022/09/10 03:57:53;;;;;;;;;;;;;;;16.40;63.29;100955.38;4959032;28;19930;-61
2022/09/10 04:00:18;;;;;;;;;;;;;;;16.41;63.28;100951.72;4964115;28;20020;-56
2022/09/10 04:02:45;;;;;;;;;;;;;;;16.43;63.41;100955.09;4962350;28;19930;-56
2022/09/10 04:05:10;;;;;;;;;;;;;;;16.43;63.36;100957.75;4962948;28;19930;-56
2022/09/10 04:07:36;;;;;;;;;;;;;;;16.43;63.30;100956.94;4962075;28;20321;-57
2022/09/10 04:10:02;;;;;;;;;;;;;;;16.43;63.41;100955.09;4965231;28;19926;-56
2022/09/10 04:12:28;;;;;;;;;;;;;;;16.42;63.25;100953.41;4961539;28;19926;-57
2022/09/10 04:14:53;;;;;;;;;;;;;;;16.41;63.20;100957.03;4965178;28;19925;-58
2022/09/10 04:17:19;;;;;;;;;;;;;;;16.40;63.35;100959.81;4961760;28;19933;-56
2022/09/10 04:19:45;;;;;;;;;;;;;;;16.38;63.25;100962.59;4961855;28;19926;-56
2022/09/10 04:22:10;;;;;;;;;;;;;;;16.38;63.28;100967.91;4961564;28;19930;-57
2022/09/10 04:24:35;;;;;;;;;;;;;;;16.36;63.27;100964.53;4964531;28;21030;-59
2022/09/10 04:27:01;;;;;;;;;;;;;;;16.36;63.28;100964.53;4963770;28;20830;-58
2022/09/10 04:29:26;;;;;;;;;;;;;;;16.35;63.37;100968.16;4963702;28;20317;-60
2022/09/10 04:31:51;;;;;;;;;;;;;;;16.33;63.26;100967.44;4962011;28;19926;-59
2022/09/10 04:34:17;;;;;;;;;;;;;;;16.31;63.45;100972.00;4960349;28;19917;-56
2022/09/10 04:36:42;;;;;;;;;;;;;;;16.29;63.48;100973.94;4965177;28;19933;-58
2022/09/10 04:39:08;;;;;;;;;;;;;;;16.27;63.40;100965.25;4963397;28;20022;-58
2022/09/10 04:41:33;;;;;;;;;;;;;;;16.26;63.55;100964.41;4961794;28;19977;-57
2022/09/10 04:43:58;;;;;;;;;;;;;;;16.23;63.45;100963.81;4958960;28;19986;-58
2022/09/10 04:46:24;;;;;;;;;;;;;;;16.22;63.60;100970.09;4961631;28;19930;-56
2022/09/10 04:48:50;;;;;;;;;;;;;;;16.19;63.64;100962.34;4965517;28;20056;-56
2022/09/10 04:51:16;;;;;;;;;;;;;;;16.20;63.66;100956.09;4966224;28;19993;-57
2022/09/10 04:53:41;;;;;;;;;;;;;;;16.21;63.66;100960.44;4964380;28;19930;-56
2022/09/10 04:56:07;;;;;;;;;;;;;;;16.20;63.69;100972.00;4966192;28;19930;-58
2022/09/10 04:58:32;;;;;;;;;;;;;;;16.21;63.71;100965.75;4966756;28;19925;-58
2022/09/10 05:00:58;;;;;;;;;;;;;;;16.22;63.55;100967.44;4966371;28;20344;-56
2022/09/10 05:03:23;;;;;;;;;;;;;;;16.20;63.54;100964.06;4964134;28;19972;-59
2022/09/10 05:05:49;;;;;;;;;;;;;;;16.21;63.62;100971.88;4966150;28;19934;-56
2022/09/10 05:08:15;;;;;;;;;;;;;;;16.19;63.83;100967.66;4963687;28;19930;-57
2022/09/10 05:10:41;;;;;;;;;;;;;;;16.18;63.77;100964.19;4966734;28;19922;-59
2022/09/10 05:13:06;;;;;;;;;;;;;;;16.20;63.90;100969.34;4963484;28;19929;-56
2022/09/10 05:15:33;;;;;;;;;;;;;;;16.23;63.77;100969.13;4963167;28;20397;-55
2022/09/10 05:17:58;;;;;;;;;;;;;;;16.24;63.91;100966.34;4967038;28;19925;-58
2022/09/10 05:20:26;;;;;;;;;;;;;;;16.26;63.71;100964.41;4963814;28;19929;-57
2022/09/10 05:22:53;;;;;;;;;;;;;;;16.28;63.82;100977.56;4966129;28;19944;-57
2022/09/10 05:25:18;;;;;;;;;;;;;;;16.29;63.85;100966.84;4966204;28;19984;-60
2022/09/10 05:27:44;;;;;;;;;;;;;;;16.33;63.81;100969.25;4966148;28;19940;-58
2022/09/10 05:30:09;;;;;;;;;;;;;;;16.34;63.80;100974.44;4966659;28;19930;-57
2022/09/10 05:32:34;;;;;;;;;;;;;;;16.37;63.78;100976.84;4959545;28;19941;-59
2022/09/10 05:35:00;;;;;;;;;;;;;;;16.39;63.79;100974.91;4965099;28;20528;-57
2022/09/10 05:37:26;;;;;;;;;;;;;;;16.42;63.73;100979.97;4966795;28;19953;-57
2022/09/10 05:39:51;;;;;;;;;;;;;;;16.43;63.84;100980.81;4967126;28;19922;-56
2022/09/10 05:42:17;;;;;;;;;;;;;;;16.46;63.85;100986.72;4969526;28;19934;-56
2022/09/10 05:44:43;;;;;;;;;;;;;;;16.50;63.78;100986.50;4969059;28;19945;-56
2022/09/10 05:47:08;;;;;;;;;;;;;;;16.54;63.92;100987.97;4966723;28;19988;-56
2022/09/10 05:49:33;;;;;;;;;;;;;;;16.57;63.89;100988.53;4967653;28;19972;-56
2022/09/10 05:51:59;;;;;;;;;;;;;;;16.60;63.79;100990.97;4964219;28;19973;-56
2022/09/10 05:54:24;;;;;;;;;;;;;;;16.64;63.80;100990.72;4964893;28;20437;-57
2022/09/10 05:56:50;;;;;;;;;;;;;;;16.66;63.83;100989.63;4967356;28;19938;-57
2022/09/10 05:59:15;;;;;;;;;;;;;;;16.67;63.75;100988.66;4965976;28;19926;-59
2022/09/10 06:01:40;;;;;;;;;;;;;;;16.70;63.98;100985.78;4964353;28;19981;-60
2022/09/10 06:04:06;;;;;;;;;;;;;;;16.73;63.93;100988.16;4966063;28;19926;-58
2022/09/10 06:06:31;;;;;;;;;;;;;;;16.76;64.00;100987.91;4960274;28;19930;-60
2022/09/10 06:08:56;;;;;;;;;;;;;;;16.77;63.96;100991.44;4959212;28;20325;-56
2022/09/10 06:11:22;;;;;;;;;;;;;;;16.79;64.10;100993.97;4959030;28;19957;-56
2022/09/10 06:13:47;;;;;;;;;;;;;;;16.82;64.09;100993.72;4963953;28;19922;-57
2022/09/10 06:16:13;;;;;;;;;;;;;;;16.84;63.90;100989.13;4959633;28;19930;-56
2022/09/10 06:18:39;;;;;;;;;;;;;;;16.88;64.03;100990.53;4966162;28;19961;-56
2022/09/10 06:21:15;;;;;;;;;;;;;;;16.90;64.05;100985.97;4963126;28;19941;-56
2022/09/10 06:23:41;;;;;;;;;;;;;;;16.92;64.06;100984.03;4964610;28;20382;-59
2022/09/10 06:26:08;;;;;;;;;;;;;;;16.94;63.93;100984.75;4959502;28;20897;-56
2022/09/10 06:28:34;;;;;;;;;;;;;;;16.95;64.11;100981.16;4967614;28;20452;-57
2022/09/10 06:31:03;;;;;;;;;;;;;;;16.96;64.03;100993.47;4965529;28;19930;-56
2022/09/10 06:33:28;;;;;;;;;;;;;;;16.99;64.04;100992.38;4965700;28;19929;-60
2022/09/10 06:35:54;;;;;;;;;;;;;;;17.00;64.00;100992.28;4957366;28;19929;-57
2022/09/10 06:38:20;;;;;;;;;;;;;;;17.01;64.17;100991.31;4958948;28;19930;-56
2022/09/10 06:40:50;;;;;;;;;;;;;;;17.02;64.15;100992.97;4968326;28;19914;-57
2022/09/10 06:43:16;;;;;;;;;;;;;;;17.06;64.23;100990.91;4962874;28;19926;-58
2022/09/10 06:45:41;;;;;;;;;;;;;;;17.08;64.13;100990.78;4966154;28;20290;-56
2022/09/10 06:48:06;;;;;;;;;;;;;;;17.11;64.29;100995.88;4961983;28;20501;-59
2022/09/10 06:50:31;;;;;;;;;;;;;;;17.13;64.31;100993.94;4963229;28;20016;-55
2022/09/10 06:52:57;;;;;;;;;;;;;;;17.14;64.30;100990.28;4964294;28;19923;-56
2022/09/10 06:55:23;;;;;;;;;;;;;;;17.16;64.25;100989.19;4960434;28;19926;-57
2022/09/10 06:57:48;;;;;;;;;;;;;;;17.18;64.28;100986.41;4963632;28;19929;-56
2022/09/10 07:00:13;;;;;;;;;;;;;;;17.21;64.07;100996.78;4965990;28;19961;-57
2022/09/10 07:02:39;;;;;;;;;;;;;;;17.23;64.11;100996.69;4962068;28;19937;-56
2022/09/10 07:05:05;;;;;;;;;;;;;;;17.23;64.10;101000.16;4960258;28;19953;-59
2022/09/10 07:07:30;;;;;;;;;;;;;;;17.26;64.26;101001.72;4965374;28;19926;-58
2022/09/10 07:09:55;;;;;;;;;;;;;;;17.26;64.06;100999.91;4964295;28;19930;-59
2022/09/10 07:12:21;;;;;;;;;;;;;;;17.28;64.16;100999.78;4965487;28;20032;-59
2022/09/10 07:14:46;;;;;;;;;;;;;;;17.30;64.14;101001.38;4959837;28;19984;-58
2022/09/10 07:17:11;;;;;;;;;;;;;;;17.32;64.35;101004.72;4960574;28;19972;-58
2022/09/10 07:19:37;;;;;;;;;;;;;;;17.34;64.13;101001.94;4956261;28;19930;-56
2022/09/10 07:22:02;;;;;;;;;;;;;;;17.37;64.07;100994.56;4963675;28;19922;-56
2022/09/10 07:24:27;;;;;;;;;;;;;;;17.40;64.16;100997.94;4960043;28;19926;-59
2022/09/10 07:26:53;;;;;;;;;;;;;;;17.44;64.14;101002.03;4962838;28;19980;-57
2022/09/10 07:29:18;;;;;;;;;;;;;;;17.45;64.02;101001.06;4962596;28;20390;-56
2022/09/10 07:31:46;;;;;;;;;;;;;;;17.48;63.94;101000.78;4958775;28;19926;-56
2022/09/10 07:34:11;;;;;;;;;;;;;;;17.52;63.84;101007.56;4957514;28;19914;-56
2022/09/10 07:36:36;;;;;;;;;;;;;;;17.56;64.20;101005.47;4954564;28;19932;-57
2022/09/10 07:39:03;;;;;;;;;;;;;;;17.58;64.05;100992.88;4965147;28;20016;-60
2022/09/10 07:41:29;;;;;;;;;;;;;;;17.61;63.87;101006.81;4967360;28;20016;-56
2022/09/10 07:43:55;;;;;;;;;;;;;;;17.63;63.83;100994.19;4966408;28;19918;-58
2022/09/10 07:46:21;;;;;;;;;;;;;;;17.67;63.99;100998.28;4967995;28;19930;-59
2022/09/10 07:48:49;;;;;;;;;;;;;;;17.70;63.80;100997.19;4967196;28;20406;-57
2022/09/10 07:51:18;;;;;;;;;;;;;;;17.73;64.05;100988.13;4967101;28;19976;-57
2022/09/10 07:53:46;;;;;;;;;;;;;;;17.77;64.08;101000.19;4966716;28;21319;-56
2022/09/10 07:56:12;;;;;;;;;;;;;;;17.80;63.97;100994.59;4962313;28;20492;-55
2022/09/10 07:58:38;;;;;;;;;;;;;;;17.83;63.90;100995.19;4956359;28;19926;-56
2022/09/10 08:01:08;;;;;;;;;;;;;;;17.86;63.86;100998.53;4957416;28;19966;-59
2022/09/10 08:03:33;;;;;;;;;;;;;;;17.90;63.89;101000.84;4963101;28;20432;-57
2022/09/10 08:06:01;;;;;;;;;;;;;;;17.93;63.73;101008.53;4963548;28;19965;-59
2022/09/10 08:08:30;;;;;;;;;;;;;;;17.95;63.89;101003.94;4961697;28;19977;-61
2022/09/10 08:11:06;;;;;;;;;;;;;;;18.00;63.86;101003.56;4961901;28;20053;-60
2022/09/10 08:13:33;;;;;;;;;;;;;;;18.06;63.66;101007.56;4964866;28;19918;-57
2022/09/10 08:15:58;;;;;;;;;;;;;;;18.07;63.49;101003.91;4962633;28;19961;-58
2022/09/10 08:18:24;;;;;;;;;;;;;;;18.09;63.48;101013.47;4960660;28;19977;-57
2022/09/10 08:20:53;;;;;;;;;;;;;;;18.10;63.81;101015.16;4962448;28;20366;-56
2022/09/10 08:23:19;;;;;;;;;;;;;;;18.14;63.65;101007.72;4955739;28;20420;-56
2022/09/10 08:25:50;;;;;;;;;;;;;;;18.18;63.72;101011.81;4962780;28;19926;-56
2022/09/10 08:28:18;;;;;;;;;;;;;;;18.22;63.59;101015.06;4962779;28;20056;-58
2022/09/10 08:30:55;;;;;;;;;;;;;;;18.25;63.49;101018.28;4962258;28;19933;-57
2022/09/10 08:33:20;;;;;;;;;;;;;;;18.30;63.58;101014.41;4960590;28;20055;-57
2022/09/10 08:35:50;;;;;;;;;;;;;;;18.32;63.33;101007.13;4962373;28;19933;-55
2022/09/10 08:38:16;;;;;;;;;;;;;;;18.38;63.62;101017.22;4962343;28;19929;-57
2022/09/10 08:40:41;;;;;;;;;;;;;;;18.40;63.54;101013.47;4965290;28;19926;-59
2022/09/10 08:43:08;;;;;;;;;;;;;;;18.42;63.75;101019.53;4962195;28;20337;-61
2022/09/10 08:45:34;;;;;;;;;;;;;;;18.47;63.45;101016.44;4962205;28;19961;-61
2022/09/10 08:47:59;;;;;;;;;;;;;;;18.52;63.49;101016.91;4958291;28;19930;-62
2022/09/10 08:50:27;;;;;;;;;;;;;;;18.58;63.25;101018.19;4961732;28;20317;-59
2022/09/10 08:52:57;;;;;;;;;;;;;;;18.64;62.96;101016.78;4959893;28;19929;-59
2022/09/10 08:55:26;;;;;;;;;;;;;;;18.68;63.06;101008.38;4963259;28;19918;-60
2022/09/10 08:57:57;;;;;;;;;;;;;;;18.71;62.97;101009.94;4962648;28;20600;-56
2022/09/10 09:00:24;;;;;;;;;;;;;;;18.75;62.75;101019.34;4959866;28;19926;-56
2022/09/10 09:03:00;;;;;;;;;;;;;;;18.78;63.01;101019.09;4965759;28;19918;-57
2022/09/10 09:05:27;;;;;;;;;;;;;;;18.80;62.59;101019.78;4965799;28;19937;-56
2022/09/10 09:07:53;;;;;;;;;;;;;;;18.82;62.56;101023.19;4961496;28;20377;-56
2022/09/10 09:10:24;;;;;;;;;;;;;;;18.86;62.67;101018.41;4963246;28;19932;-56
2022/09/10 09:12:50;;;;;;;;;;;;;;;18.92;62.41;101019.69;4952233;28;19933;-59
2022/09/10 09:15:19;;;;;;;;;;;;;;;18.97;62.34;101013.00;4947340;28;20297;-56
2022/09/10 09:17:45;;;;;;;;;;;;;;;19.00;62.33;101015.38;4959922;28;19922;-56
2022/09/10 09:20:21;;;;;;;;;;;;;;;19.04;62.45;101021.28;4960501;28;19937;-58
2022/09/10 09:22:47;;;;;;;;;;;;;;;19.07;62.06;101014.81;4960094;28;19927;-58
2022/09/10 09:25:19;;;;;;;;;;;;;;;19.08;62.27;101014.69;4957696;28;19965;-59
2022/09/10 09:27:46;;;;;;;;;;;;;;;19.12;62.45;101008.13;4959760;28;20012;-56
2022/09/10 09:30:18;;;;;;;;;;;;;;;19.14;62.03;101006.13;4959668;28;19926;-56
2022/09/10 09:32:45;;;;;;;;;;;;;;;19.17;62.20;101016.53;4958009;28;20507;-56
2022/09/10 09:35:22;;;;;;;;;;;;;;;19.21;62.40;101005.59;4964496;28;19937;-60
2022/09/10 09:37:51;;;;;;;;;;;;;;;19.24;62.32;101010.66;4959362;28;19926;-56
2022/09/10 09:40:27;;;;;;;;;;;;;;;19.26;62.49;101011.34;4960572;28;19972;-56
2022/09/10 09:43:03;;;;;;;;;;;;;;;19.29;62.46;101011.06;4962403;28;19933;-57
2022/09/10 09:45:42;;;;;;;;;;;;;;;19.32;62.61;101016.13;4961694;28;19929;-56
2022/09/10 09:48:10;;;;;;;;;;;;;;;19.32;62.45;101006.31;4962563;28;19969;-56
2022/09/10 09:50:37;;;;;;;;;;;;;;;19.34;62.27;101008.81;4961533;28;19933;-57
2022/09/10 09:53:03;;;;;;;;;;;;;;;19.40;62.44;101002.06;4962057;28;20013;-56
2022/09/10 09:55:33;;;;;;;;;;;;;;;19.45;62.12;101011.34;4965909;28;20009;-56
2022/09/10 09:58:17;;;;;;;;;;;;;;;19.49;62.31;101002.09;4967601;28;19930;-57
2022/09/10 10:00:43;;;;;;;;;;;;;;;19.56;62.20;100996.19;4965990;28;19964;-56
2022/09/10 10:03:17;;;;;;;;;;;;;;;19.59;62.00;101003.88;4956468;28;19966;-56
2022/09/10 10:05:43;;;;;;;;;;;;;;;19.62;61.90;101001.81;4953465;28;19930;-57
2022/09/10 10:08:44;;;;;;;;;;;;;;;19.65;61.83;100996.19;4961108;28;19925;-55
2022/09/10 10:11:13;;;;;;;;;;;;;;;19.72;61.63;100991.13;4921848;29;19951;-56
2022/09/10 10:13:40;;;;;;;;;;;;;;;19.76;61.65;100987.16;4951722;28;19933;-57
2022/09/10 10:16:16;;;;;;;;;;;;;;;19.80;61.47;100988.56;4962196;28;19954;-56
2022/09/10 10:18:42;;;;;;;;;;;;;;;19.85;61.44;100995.31;4960132;28;20499;-56
2022/09/10 10:21:18;;;;;;;;;;;;;;;19.86;61.51;100989.00;4957237;28;20004;-56
2022/09/10 10:23:44;;;;;;;;;;;;;;;19.88;61.64;100992.41;4960115;28;19969;-56
2022/09/10 10:26:22;;;;;;;;;;;;;;;19.90;61.42;100990.41;4965400;28;19993;-56
2022/09/10 10:28:49;;;;;;;;;;;;;;;19.93;61.38;100984.78;4964816;28;19954;-56
2022/09/10 10:31:15;;;;;;;;;;;;;;;19.97;61.26;100988.00;4965156;28;19925;-58
2022/09/10 10:33:46;;;;;;;;;;;;;;;20.03;61.44;100990.97;4960282;28;19933;-58
2022/09/10 10:36:21;;;;;;;;;;;;;;;20.08;61.33;100991.34;4960245;28;19944;-57
2022/09/10 10:39:06;;;;;;;;;;;;;;;20.12;60.98;100981.19;4962683;28;19993;-58
2022/09/10 10:41:35;;;;;;;;;;;;;;;20.18;61.02;100991.31;4959110;28;19933;-56
2022/09/10 10:44:03;;;;;;;;;;;;;;;20.23;60.77;100988.19;4958830;28;20165;-57
2022/09/10 10:46:47;;;;;;;;;;;;;;;20.29;60.69;100976.94;4959359;28;19930;-57
2022/09/10 10:49:31;;;;;;;;;;;;;;;20.38;60.55;100977.91;4959068;28;19926;-57
2022/09/10 10:52:18;;;;;;;;;;;;;;;20.46;60.65;100975.31;4963064;28;20680;-56
2022/09/10 10:54:52;;;;;;;;;;;;;;;20.56;60.31;100977.94;4957507;28;19934;-57
2022/09/10 10:57:38;;;;;;;;;;;;;;;20.62;60.19;100984.53;4960735;28;19922;-58
2022/09/10 11:00:06;;;;;;;;;;;;;;;20.66;60.38;100984.06;4962805;28;20044;-58
2022/09/10 11:02:39;;;;;;;;;;;;;;;20.70;60.13;100979.28;4964059;28;19929;-57
2022/09/10 11:05:24;;;;;;;;;;;;;;;20.72;60.37;100985.34;4957159;28;19926;-56
2022/09/10 11:07:51;;;;;;;;;;;;;;;20.74;60.03;100979.81;4960112;28;19930;-56
2022/09/10 11:10:19;;;;;;;;;;;;;;;20.75;60.17;100981.50;4959437;28;19969;-56
2022/09/10 11:12:48;;;;;;;;;;;;;;;20.74;59.97;100980.66;4961076;28;19928;-57
2022/09/10 11:15:28;;;;;;;;;;;;;;;20.74;59.61;100979.81;4953069;28;19926;-58
2022/09/10 11:17:57;;;;;;;;;;;;;;;20.79;59.08;100982.94;4950718;28;20649;-57
2022/09/10 11:20:28;;;;;;;;;;;;;;;20.82;59.03;100977.25;4948683;28;19926;-56
2022/09/10 11:22:58;;;;;;;;;;;;;;;20.86;58.93;100978.66;4955296;28;19997;-56
2022/09/10 11:25:29;;;;;;;;;;;;;;;20.91;58.79;100979.03;4962808;28;20569;-58
2022/09/10 11:27:58;;;;;;;;;;;;;;;20.95;58.44;100987.59;4954479;28;20020;-59
2022/09/10 11:30:24;;;;;;;;;;;;;;;20.98;58.17;100985.47;4947419;28;19922;-57
2022/09/10 11:32:57;;;;;;;;;;;;;;;21.04;58.13;100977.84;4957451;28;20369;-59
2022/09/10 11:35:42;;;;;;;;;;;;;;;21.09;58.25;100978.22;4958109;28;19926;-58
2022/09/10 11:38:21;;;;;;;;;;;;;;;21.17;58.15;100972.94;4953620;28;20004;-56
2022/09/10 11:41:04;;;;;;;;;;;;;;;21.24;57.82;100971.34;4954052;28;20316;-56
2022/09/10 11:43:41;;;;;;;;;;;;;;;21.30;57.64;100972.56;4961699;28;19922;-57
2022/09/10 11:46:12;;;;;;;;;;;;;;;21.41;57.56;100966.13;4956273;28;19922;-59
2022/09/10 11:48:37;;;;;;;;;;;;;;;21.49;57.12;100963.53;4955783;28;19934;-58
2022/09/10 11:51:21;;;;;;;;;;;;;;;21.56;57.29;100966.41;4953836;28;20016;-56
2022/09/10 11:53:47;;;;;;;;;;;;;;;21.62;57.13;100958.63;4963391;28;19924;-57
2022/09/10 11:56:26;;;;;;;;;;;;;;;21.67;57.07;100960.00;4959395;28;20556;-56
2022/09/10 11:58:51;;;;;;;;;;;;;;;21.70;56.90;100962.38;4958681;28;20013;-58
2022/09/10 12:01:22;;;;;;;;;;;;;;;21.74;56.56;100955.69;4951061;28;19956;-57
2022/09/10 12:04:07;;;;;;;;;;;;;;;21.81;56.44;100959.44;4946205;28;19926;-57
2022/09/10 12:06:39;;;;;;;;;;;;;;;21.86;56.16;100957.09;4947644;28;20379;-57
2022/09/10 12:09:14;;;;;;;;;;;;;;;21.95;56.23;100962.53;4950399;28;19926;-57
2022/09/10 12:11:58;;;;;;;;;;;;;;;22.04;55.77;100949.03;4956296;28;19922;-57
2022/09/10 12:14:23;;;;;;;;;;;;;;;22.13;55.55;100949.06;4954679;28;19922;-56
2022/09/10 12:16:49;;;;;;;;;;;;;;;22.19;55.35;100941.22;4963745;28;19933;-57
2022/09/10 12:19:25;;;;;;;;;;;;;;;22.28;55.49;100943.94;4960166;28;20394;-57
2022/09/10 12:21:53;;;;;;;;;;;;;;;22.34;55.34;100945.97;4951718;28;20743;-57
2022/09/10 12:24:24;;;;;;;;;;;;;;;22.39;55.47;100939.13;4953520;28;19929;-57
2022/09/10 12:26:51;;;;;;;;;;;;;;;22.46;55.23;100943.88;4959000;28;19934;-57
2022/09/10 12:29:32;;;;;;;;;;;;;;;22.51;55.07;100938.88;4955231;28;19941;-56
2022/09/10 12:32:14;;;;;;;;;;;;;;;22.56;54.92;100935.69;4951653;28;19922;-60
2022/09/10 12:34:39;;;;;;;;;;;;;;;22.60;54.82;100934.38;4946703;28;19933;-56
2022/09/10 12:37:06;;;;;;;;;;;;;;;22.65;54.94;100937.41;4951764;28;19926;-60
2022/09/10 12:39:33;;;;;;;;;;;;;;;22.71;54.65;100936.75;4956672;28;19934;-57
2022/09/10 12:41:59;;;;;;;;;;;;;;;22.79;54.53;100930.56;4960167;28;20413;-58